Time;durP1;ratioP1;P1;durP2;ratioP2;P2;SDS_P1;SDS_P2;PMS_P1;PMS_P2;Temp;Humidity;BMP_temperature;BMP_pressure;BME280_temperature;BME280_humidity;BME280_pressure;Samples;Min_cycle;Max_cycle;Signal;HPM_P1;HPM_P2
2021/02/13 00:02:41;;;;;;;75;39.4;;;;;;;-11.11;83.77441;100131.5;;;;
2021/02/13 00:12:38;;;;;;;76.9;41;;;;;;;-11.52;83.96094;100128;;;;
2021/02/13 00:22:37;;;;;;;80.4;36.1;;;;;;;-11.74;84.19336;100146.4;;;;
2021/02/13 00:32:30;;;;;;;86.4;40.7;;;;;;;-11.8;85.39941;100145.1;;;;
2021/02/13 00:42:27;;;;;;;84.2;42;;;;;;;-11.77;85.63965;100155.3;;;;
2021/02/13 00:52:23;;;;;;;58.9;30.8;;;;;;;-11.93;85.28613;100146.3;;;;
2021/02/13 01:02:19;;;;;;;59.9;31.9;;;;;;;-12.08;85.6709;100168.3;;;;
2021/02/13 01:12:16;;;;;;;58;30.9;;;;;;;-12.32;86.07031;100161.5;;;;
2021/02/13 01:22:12;;;;;;;72.7;37.1;;;;;;;-12.37;86.75195;100171.5;;;;
2021/02/13 01:32:08;;;;;;;54.4;34.1;;;;;;;-12.53;87.5166;100184.1;;;;
2021/02/13 01:42:04;;;;;;;64.5;28.7;;;;;;;-12.59;87.39746;100168.9;;;;
2021/02/13 01:52:00;;;;;;;51;30.7;;;;;;;-12.68;87.97461;100169.7;;;;
2021/02/13 02:01:57;;;;;;;56.3;29.4;;;;;;;-12.68;87.78125;100163.7;;;;
2021/02/13 02:11:53;;;;;;;73.6;30.3;;;;;;;-12.65;87.85254;100164.3;;;;
2021/02/13 02:21:49;;;;;;;71.2;30.8;;;;;;;-12.62;88.07227;100171.8;;;;
2021/02/13 02:31:45;;;;;;;60.5;31.3;;;;;;;-12.71;87.50879;100166.5;;;;
2021/02/13 02:41:42;;;;;;;61;27.6;;;;;;;-12.69;87.67285;100182.8;;;;
2021/02/13 02:51:38;;;;;;;60.9;25.4;;;;;;;-12.71;88.26465;100185.5;;;;
2021/02/13 03:01:35;;;;;;;46;27.3;;;;;;;-12.78;87.90918;100189.5;;;;
2021/02/13 03:21:26;;;;;;;60.3;30.1;;;;;;;-12.73;88.47363;100187.4;;;;
2021/02/13 03:31:23;;;;;;;59.5;27;;;;;;;-12.64;88.54785;100202.3;;;;
2021/02/13 03:41:19;;;;;;;43.5;22.1;;;;;;;-12.46;88.0752;100211.2;;;;
2021/02/13 03:51:15;;;;;;;34.5;19.9;;;;;;;-12.33;87.41113;100217;;;;
2021/02/13 04:01:12;;;;;;;46.9;25.9;;;;;;;-12.05;87.68066;100215.7;;;;
2021/02/13 04:11:08;;;;;;;42.5;24;;;;;;;-11.86;87.67773;100233.2;;;;
2021/02/13 04:21:04;;;;;;;50.7;28.1;;;;;;;-11.7;87.52148;100238.8;;;;
2021/02/13 04:31:01;;;;;;;47.5;28.2;;;;;;;-11.59;87.64941;100245.7;;;;
2021/02/13 04:40:57;;;;;;;56.7;30.4;;;;;;;-11.59;88.01172;100258.7;;;;
2021/02/13 04:50:53;;;;;;;59.6;28.2;;;;;;;-11.53;88.22949;100272;;;;
2021/02/13 05:00:50;;;;;;;38.4;25.2;;;;;;;-11.33;88.1875;100281.6;;;;
2021/02/13 05:10:46;;;;;;;40.9;23;;;;;;;-11.18;87.83203;100268.3;;;;
2021/02/13 05:20:43;;;;;;;41.5;18.7;;;;;;;-11.06;87.60352;100278.5;;;;
2021/02/13 05:30:39;;;;;;;33.8;17.9;;;;;;;-10.94;87.48926;100272.2;;;;
2021/02/13 05:40:36;;;;;;;31.7;17.6;;;;;;;-10.7;87.12305;100261.5;;;;
2021/02/13 05:50:35;;;;;;;26.1;15.3;;;;;;;-10.63;86.79395;100254.8;;;;
2021/02/13 06:00:29;;;;;;;35.4;17.4;;;;;;;-10.46;86.8418;100262;;;;
2021/02/13 06:10:25;;;;;;;29.1;14.4;;;;;;;-10.42;86.5918;100229.5;;;;
2021/02/13 06:20:22;;;;;;;27.4;13;;;;;;;-10.27;86.94531;100248.2;;;;
2021/02/13 06:30:18;;;;;;;24;13.8;;;;;;;-10;87.4707;100226.7;;;;
2021/02/13 06:40:15;;;;;;;24.5;13.6;;;;;;;-9.9;86.19629;100224.9;;;;
2021/02/13 06:50:11;;;;;;;21;13.1;;;;;;;-9.62;85.69531;100228.5;;;;
2021/02/13 07:00:08;;;;;;;25.5;13.6;;;;;;;-9.11;84.69336;100249;;;;
2021/02/13 07:10:04;;;;;;;19.6;13;;;;;;;-8.92;83.78516;100243.7;;;;
2021/02/13 07:20:01;;;;;;;19.8;12.2;;;;;;;-8.88;82.61133;100245.9;;;;
2021/02/13 07:29:58;;;;;;;21.8;12.1;;;;;;;-8.6;82.50684;100254.6;;;;
2021/02/13 07:39:55;;;;;;;24.9;13.5;;;;;;;-8.43;81.53613;100260.8;;;;
2021/02/13 07:49:51;;;;;;;23.3;14.1;;;;;;;-8.12;79.99121;100274.4;;;;
2021/02/13 07:59:48;;;;;;;31.6;19.5;;;;;;;-8.04;79.58594;100271.9;;;;
2021/02/13 08:09:46;;;;;;;28.2;17;;;;;;;-7.99;79.61523;100285.3;;;;
2021/02/13 08:19:42;;;;;;;43.4;19;;;;;;;-7.59;79.1416;100287.5;;;;
2021/02/13 08:29:39;;;;;;;41.1;20.8;;;;;;;-7.28;78.34766;100294.8;;;;
2021/02/13 08:39:37;;;;;;;32.7;22;;;;;;;-6.77;77.43457;100285.4;;;;
2021/02/13 08:49:35;;;;;;;43.7;27.6;;;;;;;-6.68;76.0752;100310.7;;;;
2021/02/13 08:59:29;;;;;;;42.7;24.1;;;;;;;-6.5;76.70508;100319.3;;;;
2021/02/13 09:09:26;;;;;;;40.5;30.5;;;;;;;-6.48;76.51172;100340.1;;;;
2021/02/13 09:19:23;;;;;;;50.3;30.2;;;;;;;-6.42;76.01563;100337.7;;;;
2021/02/13 09:29:20;;;;;;;54.1;35.7;;;;;;;-6.09;74.81445;100348.3;;;;
2021/02/13 09:39:17;;;;;;;43.3;32;;;;;;;-4.99;72.04883;100357.6;;;;
2021/02/13 09:49:14;;;;;;;50.1;32.9;;;;;;;-4.76;71.41309;100357.8;;;;
2021/02/13 09:59:11;;;;;;;54.1;35.6;;;;;;;-4.75;71.30469;100362;;;;
2021/02/13 10:09:09;;;;;;;56.2;37.9;;;;;;;-4.6;71.53809;100360.4;;;;
2021/02/13 10:19:06;;;;;;;44.3;32.5;;;;;;;-4.41;71.02441;100359.2;;;;
2021/02/13 10:29:03;;;;;;;50.6;33.8;;;;;;;-4.35;71.10059;100342.7;;;;
2021/02/13 10:39:00;;;;;;;53;36.3;;;;;;;-3.48;68.89648;100332;;;;
2021/02/13 10:48:59;;;;;;;45.7;34.1;;;;;;;-3.12;67.41016;100340.9;;;;
2021/02/13 10:58:54;;;;;;;48.3;32.5;;;;;;;-3.22;67.32813;100350.9;;;;
2021/02/13 11:08:52;;;;;;;49.2;33.4;;;;;;;-3.52;67.79492;100364.1;;;;
2021/02/13 11:18:49;;;;;;;46.6;31.9;;;;;;;-3.64;68.36523;100334.7;;;;
2021/02/13 11:28:46;;;;;;;51.6;34.8;;;;;;;-4.15;70.10742;100312.4;;;;
2021/02/13 11:38:43;;;;;;;48.2;33.2;;;;;;;-3.49;68.72949;100321.6;;;;
2021/02/13 11:48:56;;;;;;;56.7;29.2;;;;;;;-3.37;68.82617;100320.2;;;;
2021/02/13 11:58:38;;;;;;;45.7;27.8;;;;;;;-3.14;68.51367;100327.1;;;;
2021/02/13 12:08:37;;;;;;;53.7;33.2;;;;;;;-2.78;67.57227;100342.3;;;;
2021/02/13 12:18:36;;;;;;;34.9;30;;;;;;;-3.19;68.78027;100337.4;;;;
2021/02/13 12:28:29;;;;;;;46.4;30.8;;;;;;;-3.3;69.82324;100345.7;;;;
2021/02/13 12:38:27;;;;;;;50;32.3;;;;;;;-3.48;70.55859;100342.5;;;;
2021/02/13 12:48:24;;;;;;;43.9;31.1;;;;;;;-3.8;72.84277;100330.3;;;;
2021/02/13 12:58:22;;;;;;;33.2;27.6;;;;;;;-3.79;72.9541;100328.5;;;;
2021/02/13 13:08:20;;;;;;;46.8;32.4;;;;;;;-3.87;73.39844;100315.4;;;;
2021/02/13 13:18:16;;;;;;;58.4;35.7;;;;;;;-4.19;74.64258;100309.3;;;;
2021/02/13 13:28:14;;;;;;;40.6;28.1;;;;;;;-3.99;74.85059;100304.4;;;;
2021/02/13 13:38:10;;;;;;;42.5;30.8;;;;;;;-3.45;73.72266;100302.6;;;;
2021/02/13 13:48:07;;;;;;;48.4;34.2;;;;;;;-3.74;74.89453;100315.6;;;;
2021/02/13 13:58:04;;;;;;;47.9;31.7;;;;;;;-3.92;77.54785;100326.4;;;;
2021/02/13 14:08:02;;;;;;;49.5;32.6;;;;;;;-4.07;78.46777;100329;;;;
2021/02/13 14:17:59;;;;;;;43.8;26;;;;;;;-4.33;79.22363;100335.5;;;;
2021/02/13 14:27:56;;;;;;;46.7;25.1;;;;;;;-4.32;79.93262;100337.1;;;;
2021/02/13 14:37:53;;;;;;;41.7;27.4;;;;;;;-4.44;80.61816;100349.8;;;;
2021/02/13 14:47:50;;;;;;;53.5;34.9;;;;;;;-4.63;81.45215;100358.1;;;;
2021/02/13 14:57:47;;;;;;;46.3;27.6;;;;;;;-4.75;82.92773;100344.4;;;;
2021/02/13 15:07:44;;;;;;;43.5;28.4;;;;;;;-4.78;84.01953;100343.9;;;;
2021/02/13 15:17:41;;;;;;;49.8;31.2;;;;;;;-4.7;84.74121;100339.5;;;;
2021/02/13 15:27:41;;;;;;;48;28.1;;;;;;;-4.78;85.88672;100338.7;;;;
2021/02/13 15:37:35;;;;;;;39.9;29.9;;;;;;;-4.87;87.41895;100347.6;;;;
2021/02/13 15:47:32;;;;;;;49.6;27.3;;;;;;;-4.93;87.62305;100335.9;;;;
2021/02/13 15:57:29;;;;;;;48.1;30;;;;;;;-4.94;87.49121;100371.1;;;;
2021/02/13 16:07:26;;;;;;;56.8;33;;;;;;;-4.99;88.87891;100362;;;;
2021/02/13 16:17:24;;;;;;;50.4;33;;;;;;;-5;89.49414;100349.9;;;;
2021/02/13 16:27:21;;;;;;;54.5;33;;;;;;;-4.94;89.30176;100360.5;;;;
2021/02/13 16:37:18;;;;;;;48.8;33.3;;;;;;;-4.93;88.93359;100335.1;;;;
2021/02/13 16:47:15;;;;;;;60.9;34.4;;;;;;;-4.88;88.77246;100346.7;;;;
2021/02/13 16:57:12;;;;;;;48;38.9;;;;;;;-4.91;88.92773;100364.6;;;;
2021/02/13 17:07:09;;;;;;;51;35.7;;;;;;;-4.89;89.20313;100373.2;;;;
2021/02/13 17:17:06;;;;;;;56.8;40.9;;;;;;;-4.87;89.56641;100366.8;;;;
2021/02/13 17:27:03;;;;;;;59.8;41.2;;;;;;;-4.72;89.7373;100359.1;;;;
2021/02/13 17:37:00;;;;;;;61.8;48.1;;;;;;;-4.71;90.1748;100355.4;;;;
2021/02/13 17:46:57;;;;;;;79.3;51;;;;;;;-4.63;90.34375;100368.6;;;;
2021/02/13 17:56:54;;;;;;;56.9;46.1;;;;;;;-4.53;90.23242;100363.1;;;;
2021/02/13 18:06:51;;;;;;;60.5;43.9;;;;;;;-4.43;90.30762;100371.7;;;;
2021/02/13 18:16:48;;;;;;;47.2;35.8;;;;;;;-4.36;90.44434;100378.7;;;;
2021/02/13 18:26:45;;;;;;;56.6;39.1;;;;;;;-4.26;90.28125;100394.3;;;;
2021/02/13 18:36:42;;;;;;;44.2;36.9;;;;;;;-4.2;90.38086;100391.8;;;;
2021/02/13 18:46:39;;;;;;;65.6;39.3;;;;;;;-4.14;90.40527;100399.1;;;;
2021/02/13 18:56:37;;;;;;;60.6;42.6;;;;;;;-4.1;90.52148;100418;;;;
2021/02/13 19:06:36;;;;;;;55.8;42.5;;;;;;;-4.04;90.41602;100420;;;;
2021/02/13 19:16:31;;;;;;;72.2;52.4;;;;;;;-4.03;90.12207;100412.9;;;;
2021/02/13 19:26:28;;;;;;;66.7;43.9;;;;;;;-4.02;89.86523;100425;;;;
2021/02/13 19:36:25;;;;;;;48.6;37.7;;;;;;;-3.97;89.89844;100439.4;;;;
2021/02/13 19:46:22;;;;;;;62.6;41.7;;;;;;;-3.96;89.7793;100442.8;;;;
2021/02/13 19:56:19;;;;;;;101.7;72.9;;;;;;;-3.97;89.66895;100451.7;;;;
2021/02/13 20:06:17;;;;;;;75.1;46.9;;;;;;;-4.03;89.66602;100447.1;;;;
2021/02/13 20:16:14;;;;;;;80;61.4;;;;;;;-4.04;89.56836;100448.9;;;;
2021/02/13 20:26:11;;;;;;;71.2;45.9;;;;;;;-4.09;89.60254;100459.9;;;;
2021/02/13 20:36:08;;;;;;;52.1;37.2;;;;;;;-4.15;89.44629;100462.4;;;;
2021/02/13 20:46:05;;;;;;;66.6;42.3;;;;;;;-4.04;89.18652;100474.4;;;;
2021/02/13 20:56:02;;;;;;;53.2;36.8;;;;;;;-4.05;88.61133;100484.1;;;;
2021/02/13 21:06:00;;;;;;;49.5;37.1;;;;;;;-4.02;87.86621;100473.3;;;;
2021/02/13 21:15:57;;;;;;;53.3;39.3;;;;;;;-4.07;87.40137;100481.7;;;;
2021/02/13 21:25:54;;;;;;;41.9;28.4;;;;;;;-4.1;87.28516;100487.3;;;;
2021/02/13 21:35:51;;;;;;;40.9;26.5;;;;;;;-4.08;86.99512;100495;;;;
2021/02/13 21:45:48;;;;;;;48.2;26.2;;;;;;;-4.1;86.69824;100491.7;;;;
2021/02/13 21:55:45;;;;;;;36.3;27.4;;;;;;;-4.18;86.61621;100487.3;;;;
2021/02/13 22:05:42;;;;;;;41.3;26.9;;;;;;;-4.2;86.75391;100502.4;;;;
2021/02/13 22:15:40;;;;;;;32.8;21.9;;;;;;;-4.25;86.49316;100514.4;;;;
2021/02/13 22:25:37;;;;;;;28.4;24.9;;;;;;;-4.23;86.35742;100517.7;;;;
2021/02/13 22:35:36;;;;;;;34.5;23.3;;;;;;;-4.22;86.32715;100509.7;;;;
2021/02/13 22:45:31;;;;;;;41.6;25.2;;;;;;;-4.22;86.19629;100514.9;;;;
2021/02/13 22:55:28;;;;;;;32.6;22.9;;;;;;;-4.2;85.89551;100518.2;;;;
2021/02/13 23:05:25;;;;;;;36.3;21;;;;;;;-4.13;85.64941;100545.5;;;;
2021/02/13 23:15:22;;;;;;;25;18.8;;;;;;;-4.07;85.37793;100536.1;;;;
2021/02/13 23:25:19;;;;;;;22.9;17.4;;;;;;;-4.04;84.06738;100535;;;;
2021/02/13 23:35:17;;;;;;;27.6;16.5;;;;;;;-4.03;84.20996;100536.6;;;;
2021/02/13 23:45:14;;;;;;;32.6;22;;;;;;;-4.1;84.89355;100526.8;;;;
2021/02/13 23:55:11;;;;;;;18.8;11.6;;;;;;;-4.06;80.94043;100522;;;;
